sensor_id;sensor_type;location;lat;lon;timestamp;temperature;humidity
20081;DHT22;10200;49.232;9.222;2023-03-23T00:01:57;14.50;83.90
20081;DHT22;10200;49.232;9.222;2023-03-23T00:04:23;14.50;83.80
20081;DHT22;10200;49.232;9.222;2023-03-23T00:06:51;14.50;83.30
20081;DHT22;10200;49.232;9.222;2023-03-23T00:09:16;14.50;83.00
20081;DHT22;10200;49.232;9.222;2023-03-23T00:11:42;14.50;82.80
20081;DHT22;10200;49.232;9.222;2023-03-23T00:14:09;14.50;82.50
20081;DHT22;10200;49.232;9.222;2023-03-23T00:16:40;14.50;82.40
20081;DHT22;10200;49.232;9.222;2023-03-23T00:19:11;14.50;82.00
20081;DHT22;10200;49.232;9.222;2023-03-23T00:21:41;14.50;82.00
20081;DHT22;10200;49.232;9.222;2023-03-23T00:26:37;14.60;81.20
20081;DHT22;10200;49.232;9.222;2023-03-23T00:29:11;14.60;81.00
20081;DHT22;10200;49.232;9.222;2023-03-23T00:31:39;14.60;81.20
20081;DHT22;10200;49.232;9.222;2023-03-23T00:34:05;14.60;80.90
20081;DHT22;10200;49.232;9.222;2023-03-23T00:36:33;14.60;80.90
20081;DHT22;10200;49.232;9.222;2023-03-23T00:39:01;14.60;81.40
20081;DHT22;10200;49.232;9.222;2023-03-23T00:41:28;14.60;80.30
20081;DHT22;10200;49.232;9.222;2023-03-23T00:43:55;14.60;80.30
20081;DHT22;10200;49.232;9.222;2023-03-23T00:46:22;14.60;79.90
20081;DHT22;10200;49.232;9.222;2023-03-23T00:48:47;14.70;79.40
20081;DHT22;10200;49.232;9.222;2023-03-23T00:51:13;14.60;79.30
20081;DHT22;10200;49.232;9.222;2023-03-23T00:53:40;14.60;79.20
20081;DHT22;10200;49.232;9.222;2023-03-23T00:56:06;14.60;79.00
20081;DHT22;10200;49.232;9.222;2023-03-23T00:58:32;14.70;78.60
20081;DHT22;10200;49.232;9.222;2023-03-23T01:00:58;14.70;78.40
20081;DHT22;10200;49.232;9.222;2023-03-23T01:03:24;14.70;78.40
20081;DHT22;10200;49.232;9.222;2023-03-23T01:05:52;14.70;78.20
20081;DHT22;10200;49.232;9.222;2023-03-23T01:08:19;14.70;77.90
20081;DHT22;10200;49.232;9.222;2023-03-23T01:10:45;14.70;78.00
20081;DHT22;10200;49.232;9.222;2023-03-23T01:13:11;14.70;78.00
20081;DHT22;10200;49.232;9.222;2023-03-23T01:15:38;14.70;78.00
20081;DHT22;10200;49.232;9.222;2023-03-23T01:18:04;14.70;77.70
20081;DHT22;10200;49.232;9.222;2023-03-23T01:20:32;14.70;77.60
20081;DHT22;10200;49.232;9.222;2023-03-23T01:22:58;14.70;77.30
20081;DHT22;10200;49.232;9.222;2023-03-23T01:25:31;14.70;77.10
20081;DHT22;10200;49.232;9.222;2023-03-23T01:27:57;14.70;77.00
20081;DHT22;10200;49.232;9.222;2023-03-23T01:30:24;14.70;76.90
20081;DHT22;10200;49.232;9.222;2023-03-23T01:32:50;14.70;76.90
20081;DHT22;10200;49.232;9.222;2023-03-23T01:35:16;14.70;77.00
20081;DHT22;10200;49.232;9.222;2023-03-23T01:37:42;14.60;77.00
20081;DHT22;10200;49.232;9.222;2023-03-23T01:40:08;14.70;77.10
20081;DHT22;10200;49.232;9.222;2023-03-23T01:42:36;14.70;77.20
20081;DHT22;10200;49.232;9.222;2023-03-23T01:50:49;14.70;77.20
20081;DHT22;10200;49.232;9.222;2023-03-23T01:53:16;14.70;77.30
20081;DHT22;10200;49.232;9.222;2023-03-23T01:55:43;14.60;77.20
20081;DHT22;10200;49.232;9.222;2023-03-23T01:58:13;14.70;77.40
20081;DHT22;10200;49.232;9.222;2023-03-23T02:00:40;14.60;77.40
20081;DHT22;10200;49.232;9.222;2023-03-23T02:03:08;14.70;77.40
20081;DHT22;10200;49.232;9.222;2023-03-23T02:05:38;14.70;77.50
20081;DHT22;10200;49.232;9.222;2023-03-23T02:08:05;14.70;77.60
20081;DHT22;10200;49.232;9.222;2023-03-23T02:10:33;14.70;77.70
20081;DHT22;10200;49.232;9.222;2023-03-23T02:13:02;14.70;78.50
20081;DHT22;10200;49.232;9.222;2023-03-23T02:15:35;14.70;77.70
20081;DHT22;10200;49.232;9.222;2023-03-23T02:18:29;14.70;77.70
20081;DHT22;10200;49.232;9.222;2023-03-23T02:34:41;14.70;77.10
20081;DHT22;10200;49.232;9.222;2023-03-23T02:37:13;14.70;77.10
20081;DHT22;10200;49.232;9.222;2023-03-23T02:39:49;14.70;76.80
20081;DHT22;10200;49.232;9.222;2023-03-23T02:42:22;14.80;76.80
20081;DHT22;10200;49.232;9.222;2023-03-23T02:44:50;14.80;76.50
20081;DHT22;10200;49.232;9.222;2023-03-23T02:47:21;14.80;76.40
20081;DHT22;10200;49.232;9.222;2023-03-23T02:49:50;14.70;76.30
20081;DHT22;10200;49.232;9.222;2023-03-23T02:52:23;14.80;76.40
20081;DHT22;10200;49.232;9.222;2023-03-23T02:54:51;14.90;76.40
20081;DHT22;10200;49.232;9.222;2023-03-23T02:57:17;14.80;76.20
20081;DHT22;10200;49.232;9.222;2023-03-23T02:59:43;14.90;76.90
20081;DHT22;10200;49.232;9.222;2023-03-23T03:04:40;14.90;75.80
20081;DHT22;10200;49.232;9.222;2023-03-23T03:10:04;14.90;75.60
20081;DHT22;10200;49.232;9.222;2023-03-23T03:15:20;15.00;75.50
20081;DHT22;10200;49.232;9.222;2023-03-23T03:18:18;15.00;75.30
20081;DHT22;10200;49.232;9.222;2023-03-23T03:20:46;15.00;75.30
20081;DHT22;10200;49.232;9.222;2023-03-23T03:23:14;15.00;75.30
20081;DHT22;10200;49.232;9.222;2023-03-23T03:25:41;15.10;75.10
20081;DHT22;10200;49.232;9.222;2023-03-23T03:28:17;15.00;75.10
20081;DHT22;10200;49.232;9.222;2023-03-23T03:30:51;15.00;75.00
20081;DHT22;10200;49.232;9.222;2023-03-23T03:33:19;15.00;75.20
20081;DHT22;10200;49.232;9.222;2023-03-23T03:35:46;15.00;75.30
20081;DHT22;10200;49.232;9.222;2023-03-23T03:38:12;15.00;75.30
20081;DHT22;10200;49.232;9.222;2023-03-23T03:40:38;15.00;75.40
20081;DHT22;10200;49.232;9.222;2023-03-23T03:43:04;15.00;75.30
20081;DHT22;10200;49.232;9.222;2023-03-23T03:45:31;15.00;75.50
20081;DHT22;10200;49.232;9.222;2023-03-23T03:47:57;15.00;75.60
20081;DHT22;10200;49.232;9.222;2023-03-23T03:50:22;14.90;75.50
20081;DHT22;10200;49.232;9.222;2023-03-23T03:52:48;14.90;75.50
20081;DHT22;10200;49.232;9.222;2023-03-23T03:55:14;14.90;75.50
20081;DHT22;10200;49.232;9.222;2023-03-23T03:57:42;14.90;75.60
20081;DHT22;10200;49.232;9.222;2023-03-23T04:00:09;14.90;75.80
20081;DHT22;10200;49.232;9.222;2023-03-23T04:02:40;14.90;75.90
20081;DHT22;10200;49.232;9.222;2023-03-23T04:05:06;14.90;75.90
20081;DHT22;10200;49.232;9.222;2023-03-23T04:07:32;14.80;75.80
20081;DHT22;10200;49.232;9.222;2023-03-23T04:09:57;14.90;76.00
20081;DHT22;10200;49.232;9.222;2023-03-23T04:12:23;14.80;75.90
20081;DHT22;10200;49.232;9.222;2023-03-23T04:14:49;14.80;75.90
20081;DHT22;10200;49.232;9.222;2023-03-23T04:17:15;14.90;76.00
20081;DHT22;10200;49.232;9.222;2023-03-23T04:19:42;14.80;75.80
20081;DHT22;10200;49.232;9.222;2023-03-23T04:22:08;14.80;75.80
20081;DHT22;10200;49.232;9.222;2023-03-23T04:24:33;14.80;76.70
20081;DHT22;10200;49.232;9.222;2023-03-23T04:27:00;14.80;76.00
20081;DHT22;10200;49.232;9.222;2023-03-23T04:29:27;14.80;76.10
20081;DHT22;10200;49.232;9.222;2023-03-23T04:31:53;14.80;76.20
20081;DHT22;10200;49.232;9.222;2023-03-23T04:34:21;14.70;76.40
20081;DHT22;10200;49.232;9.222;2023-03-23T04:36:47;14.70;77.10
20081;DHT22;10200;49.232;9.222;2023-03-23T04:39:13;14.80;76.50
20081;DHT22;10200;49.232;9.222;2023-03-23T04:41:39;14.70;76.70
20081;DHT22;10200;49.232;9.222;2023-03-23T04:44:06;14.60;76.80
20081;DHT22;10200;49.232;9.222;2023-03-23T04:46:32;14.70;77.10
20081;DHT22;10200;49.232;9.222;2023-03-23T04:48:58;14.60;77.20
20081;DHT22;10200;49.232;9.222;2023-03-23T04:51:25;14.60;77.50
20081;DHT22;10200;49.232;9.222;2023-03-23T04:53:52;14.60;77.70
20081;DHT22;10200;49.232;9.222;2023-03-23T04:56:18;14.60;77.70
20081;DHT22;10200;49.232;9.222;2023-03-23T04:58:44;14.50;77.90
20081;DHT22;10200;49.232;9.222;2023-03-23T05:01:10;14.50;78.00
20081;DHT22;10200;49.232;9.222;2023-03-23T05:03:39;14.60;78.20
20081;DHT22;10200;49.232;9.222;2023-03-23T05:06:09;14.60;78.30
20081;DHT22;10200;49.232;9.222;2023-03-23T05:08:34;14.50;78.40
20081;DHT22;10200;49.232;9.222;2023-03-23T05:11:05;14.60;78.50
20081;DHT22;10200;49.232;9.222;2023-03-23T05:13:31;14.60;78.70
20081;DHT22;10200;49.232;9.222;2023-03-23T05:15:57;14.60;78.80
20081;DHT22;10200;49.232;9.222;2023-03-23T05:18:23;14.60;78.80
20081;DHT22;10200;49.232;9.222;2023-03-23T05:20:49;14.60;79.10
20081;DHT22;10200;49.232;9.222;2023-03-23T05:23:18;14.50;79.10
20081;DHT22;10200;49.232;9.222;2023-03-23T05:25:52;14.70;79.50
20081;DHT22;10200;49.232;9.222;2023-03-23T05:28:18;14.60;79.40
20081;DHT22;10200;49.232;9.222;2023-03-23T05:30:44;14.60;79.50
20081;DHT22;10200;49.232;9.222;2023-03-23T05:33:09;14.60;79.80
20081;DHT22;10200;49.232;9.222;2023-03-23T05:35:35;14.50;79.70
20081;DHT22;10200;49.232;9.222;2023-03-23T05:38:02;14.50;79.80
20081;DHT22;10200;49.232;9.222;2023-03-23T05:40:29;14.50;79.90
20081;DHT22;10200;49.232;9.222;2023-03-23T05:42:55;14.50;80.00
20081;DHT22;10200;49.232;9.222;2023-03-23T05:45:24;14.50;80.10
20081;DHT22;10200;49.232;9.222;2023-03-23T05:47:50;14.70;80.30
20081;DHT22;10200;49.232;9.222;2023-03-23T05:50:15;14.60;80.40
20081;DHT22;10200;49.232;9.222;2023-03-23T05:52:42;14.60;80.60
20081;DHT22;10200;49.232;9.222;2023-03-23T05:55:08;14.60;80.60
20081;DHT22;10200;49.232;9.222;2023-03-23T05:57:34;14.70;80.90
20081;DHT22;10200;49.232;9.222;2023-03-23T06:00:00;14.70;80.90
20081;DHT22;10200;49.232;9.222;2023-03-23T06:02:31;14.70;81.10
20081;DHT22;10200;49.232;9.222;2023-03-23T06:04:56;14.70;81.20
20081;DHT22;10200;49.232;9.222;2023-03-23T06:07:24;14.70;81.50
20081;DHT22;10200;49.232;9.222;2023-03-23T06:09:50;14.70;81.90
20081;DHT22;10200;49.232;9.222;2023-03-23T06:12:16;14.70;82.40
20081;DHT22;10200;49.232;9.222;2023-03-23T06:14:48;14.70;82.60
20081;DHT22;10200;49.232;9.222;2023-03-23T06:17:15;14.80;83.20
20081;DHT22;10200;49.232;9.222;2023-03-23T06:19:42;14.70;82.90
20081;DHT22;10200;49.232;9.222;2023-03-23T06:22:09;14.70;82.70
20081;DHT22;10200;49.232;9.222;2023-03-23T06:24:34;14.70;82.40
20081;DHT22;10200;49.232;9.222;2023-03-23T06:27:00;14.70;82.50
20081;DHT22;10200;49.232;9.222;2023-03-23T06:29:26;14.80;82.70
20081;DHT22;10200;49.232;9.222;2023-03-23T06:31:56;14.80;82.80
20081;DHT22;10200;49.232;9.222;2023-03-23T06:34:22;14.70;83.00
20081;DHT22;10200;49.232;9.222;2023-03-23T06:36:48;14.70;83.00
20081;DHT22;10200;49.232;9.222;2023-03-23T06:39:14;14.70;83.20
20081;DHT22;10200;49.232;9.222;2023-03-23T06:41:39;14.70;83.30
20081;DHT22;10200;49.232;9.222;2023-03-23T06:44:05;14.70;83.60
20081;DHT22;10200;49.232;9.222;2023-03-23T06:46:33;14.70;83.80
20081;DHT22;10200;49.232;9.222;2023-03-23T06:48:59;14.70;83.90
20081;DHT22;10200;49.232;9.222;2023-03-23T06:51:25;14.70;84.10
20081;DHT22;10200;49.232;9.222;2023-03-23T06:53:51;14.70;84.30
20081;DHT22;10200;49.232;9.222;2023-03-23T06:56:17;14.80;84.60
20081;DHT22;10200;49.232;9.222;2023-03-23T06:58:43;14.80;84.40
20081;DHT22;10200;49.232;9.222;2023-03-23T07:01:10;14.80;84.70
20081;DHT22;10200;49.232;9.222;2023-03-23T07:03:36;14.90;84.80
20081;DHT22;10200;49.232;9.222;2023-03-23T07:06:02;14.80;84.90
20081;DHT22;10200;49.232;9.222;2023-03-23T07:08:28;14.90;84.80
20081;DHT22;10200;49.232;9.222;2023-03-23T07:10:55;14.90;85.00
20081;DHT22;10200;49.232;9.222;2023-03-23T07:13:21;14.90;84.90
20081;DHT22;10200;49.232;9.222;2023-03-23T07:15:47;14.90;85.30
20081;DHT22;10200;49.232;9.222;2023-03-23T07:18:14;14.80;85.40
20081;DHT22;10200;49.232;9.222;2023-03-23T07:20:40;14.80;85.60
20081;DHT22;10200;49.232;9.222;2023-03-23T07:23:06;14.90;86.10
20081;DHT22;10200;49.232;9.222;2023-03-23T07:25:32;14.90;86.30
20081;DHT22;10200;49.232;9.222;2023-03-23T07:28:02;14.90;86.50
20081;DHT22;10200;49.232;9.222;2023-03-23T07:30:29;14.90;86.60
20081;DHT22;10200;49.232;9.222;2023-03-23T07:32:56;14.90;86.80
20081;DHT22;10200;49.232;9.222;2023-03-23T07:35:23;14.90;87.30
20081;DHT22;10200;49.232;9.222;2023-03-23T07:37:49;15.00;87.50
20081;DHT22;10200;49.232;9.222;2023-03-23T07:40:15;15.00;87.30
20081;DHT22;10200;49.232;9.222;2023-03-23T07:42:46;15.10;87.20
20081;DHT22;10200;49.232;9.222;2023-03-23T07:45:15;15.10;87.20
20081;DHT22;10200;49.232;9.222;2023-03-23T07:47:41;15.20;87.50
20081;DHT22;10200;49.232;9.222;2023-03-23T07:50:08;15.30;87.50
20081;DHT22;10200;49.232;9.222;2023-03-23T07:52:35;15.40;88.30
20081;DHT22;10200;49.232;9.222;2023-03-23T07:55:02;15.90;89.20
20081;DHT22;10200;49.232;9.222;2023-03-23T07:57:30;16.10;85.80
20081;DHT22;10200;49.232;9.222;2023-03-23T07:59:56;16.20;84.10
20081;DHT22;10200;49.232;9.222;2023-03-23T08:02:23;16.60;84.30
20081;DHT22;10200;49.232;9.222;2023-03-23T08:04:50;16.60;82.00
20081;DHT22;10200;49.232;9.222;2023-03-23T08:07:17;16.60;80.80
20081;DHT22;10200;49.232;9.222;2023-03-23T08:09:44;16.50;80.70
20081;DHT22;10200;49.232;9.222;2023-03-23T08:12:10;16.50;80.80
20081;DHT22;10200;49.232;9.222;2023-03-23T08:14:36;16.40;81.30
20081;DHT22;10200;49.232;9.222;2023-03-23T08:17:02;16.40;82.00
20081;DHT22;10200;49.232;9.222;2023-03-23T08:19:28;16.20;82.00
20081;DHT22;10200;49.232;9.222;2023-03-23T08:21:53;16.20;83.20
20081;DHT22;10200;49.232;9.222;2023-03-23T08:24:19;16.20;83.70
20081;DHT22;10200;49.232;9.222;2023-03-23T08:26:45;16.10;84.40
20081;DHT22;10200;49.232;9.222;2023-03-23T08:29:11;16.10;85.20
20081;DHT22;10200;49.232;9.222;2023-03-23T08:31:38;16.10;86.90
20081;DHT22;10200;49.232;9.222;2023-03-23T08:34:05;16.00;87.00
20081;DHT22;10200;49.232;9.222;2023-03-23T08:36:32;16.00;87.60
20081;DHT22;10200;49.232;9.222;2023-03-23T08:38:58;15.90;88.00
20081;DHT22;10200;49.232;9.222;2023-03-23T08:41:24;15.90;88.80
20081;DHT22;10200;49.232;9.222;2023-03-23T08:43:50;15.90;89.50
20081;DHT22;10200;49.232;9.222;2023-03-23T08:46:18;16.00;90.30
20081;DHT22;10200;49.232;9.222;2023-03-23T08:48:45;15.90;90.10
20081;DHT22;10200;49.232;9.222;2023-03-23T08:51:11;15.90;90.30
20081;DHT22;10200;49.232;9.222;2023-03-23T08:53:38;15.90;90.30
20081;DHT22;10200;49.232;9.222;2023-03-23T08:56:09;15.90;90.70
20081;DHT22;10200;49.232;9.222;2023-03-23T08:58:38;16.00;91.10
20081;DHT22;10200;49.232;9.222;2023-03-23T09:01:06;16.20;91.20
20081;DHT22;10200;49.232;9.222;2023-03-23T09:03:33;16.20;90.10
20081;DHT22;10200;49.232;9.222;2023-03-23T09:06:01;16.30;90.40
20081;DHT22;10200;49.232;9.222;2023-03-23T09:08:28;16.50;90.40
20081;DHT22;10200;49.232;9.222;2023-03-23T09:10:58;16.50;90.20
20081;DHT22;10200;49.232;9.222;2023-03-23T09:13:23;16.60;89.60
20081;DHT22;10200;49.232;9.222;2023-03-23T09:15:49;16.50;88.70
20081;DHT22;10200;49.232;9.222;2023-03-23T09:18:15;16.60;88.00
20081;DHT22;10200;49.232;9.222;2023-03-23T09:20:42;16.70;89.20
20081;DHT22;10200;49.232;9.222;2023-03-23T09:23:09;16.80;87.90
20081;DHT22;10200;49.232;9.222;2023-03-23T09:25:34;16.80;87.00
20081;DHT22;10200;49.232;9.222;2023-03-23T09:28:00;16.90;86.30
20081;DHT22;10200;49.232;9.222;2023-03-23T09:30:31;17.00;86.30
20081;DHT22;10200;49.232;9.222;2023-03-23T09:32:59;17.10;85.30
20081;DHT22;10200;49.232;9.222;2023-03-23T09:35:27;17.20;84.40
20081;DHT22;10200;49.232;9.222;2023-03-23T09:37:53;17.20;81.30
20081;DHT22;10200;49.232;9.222;2023-03-23T09:40:27;17.00;82.30
20081;DHT22;10200;49.232;9.222;2023-03-23T09:51:22;16.60;84.60
20081;DHT22;10200;49.232;9.222;2023-03-23T09:53:44;16.70;85.20
20081;DHT22;10200;49.232;9.222;2023-03-23T09:56:14;16.70;84.40
20081;DHT22;10200;49.232;9.222;2023-03-23T10:01:36;16.60;85.20
20081;DHT22;10200;49.232;9.222;2023-03-23T10:05:07;16.50;85.60
20081;DHT22;10200;49.232;9.222;2023-03-23T10:07:20;16.50;86.60
20081;DHT22;10200;49.232;9.222;2023-03-23T10:09:52;16.40;87.60
20081;DHT22;10200;49.232;9.222;2023-03-23T10:15:04;16.20;89.90
20081;DHT22;10200;49.232;9.222;2023-03-23T10:20:59;16.20;91.00
20081;DHT22;10200;49.232;9.222;2023-03-23T10:28:44;16.00;93.10
20081;DHT22;10200;49.232;9.222;2023-03-23T10:31:14;15.90;93.40
20081;DHT22;10200;49.232;9.222;2023-03-23T10:33:50;15.90;94.60
20081;DHT22;10200;49.232;9.222;2023-03-23T10:36:34;15.80;96.00
20081;DHT22;10200;49.232;9.222;2023-03-23T10:41:34;16.00;97.80
20081;DHT22;10200;49.232;9.222;2023-03-23T10:44:07;16.00;97.80
20081;DHT22;10200;49.232;9.222;2023-03-23T10:49:23;16.00;98.50
20081;DHT22;10200;49.232;9.222;2023-03-23T10:52:10;15.80;99.00
20081;DHT22;10200;49.232;9.222;2023-03-23T10:54:45;15.70;99.90
20081;DHT22;10200;49.232;9.222;2023-03-23T10:57:26;15.70;99.90
20081;DHT22;10200;49.232;9.222;2023-03-23T11:00:03;15.70;99.90
20081;DHT22;10200;49.232;9.222;2023-03-23T11:02:37;15.70;99.90
20081;DHT22;10200;49.232;9.222;2023-03-23T11:05:31;15.70;99.90
20081;DHT22;10200;49.232;9.222;2023-03-23T11:07:56;15.50;99.90
20081;DHT22;10200;49.232;9.222;2023-03-23T11:10:37;15.50;99.90
20081;DHT22;10200;49.232;9.222;2023-03-23T11:13:03;15.50;99.90
20081;DHT22;10200;49.232;9.222;2023-03-23T11:15:33;15.60;99.90
20081;DHT22;10200;49.232;9.222;2023-03-23T11:18:10;15.70;99.90
20081;DHT22;10200;49.232;9.222;2023-03-23T11:20:42;15.70;99.90
20081;DHT22;10200;49.232;9.222;2023-03-23T11:23:31;15.80;99.90
20081;DHT22;10200;49.232;9.222;2023-03-23T11:31:28;15.80;99.90
20081;DHT22;10200;49.232;9.222;2023-03-23T11:34:09;15.90;99.90
20081;DHT22;10200;49.232;9.222;2023-03-23T11:36:38;15.70;99.90
20081;DHT22;10200;49.232;9.222;2023-03-23T11:39:48;15.70;99.90
20081;DHT22;10200;49.232;9.222;2023-03-23T11:42:26;15.80;99.90
20081;DHT22;10200;49.232;9.222;2023-03-23T11:44:54;15.70;99.90
20081;DHT22;10200;49.232;9.222;2023-03-23T11:50:07;15.70;99.90
20081;DHT22;10200;49.232;9.222;2023-03-23T11:52:52;15.70;99.90
20081;DHT22;10200;49.232;9.222;2023-03-23T11:55:23;15.70;99.90
20081;DHT22;10200;49.232;9.222;2023-03-23T11:57:51;15.80;99.90
20081;DHT22;10200;49.232;9.222;2023-03-23T12:00:20;15.80;99.90
20081;DHT22;10200;49.232;9.222;2023-03-23T12:05:59;15.70;99.90
20081;DHT22;10200;49.232;9.222;2023-03-23T12:23:05;15.80;99.90
20081;DHT22;10200;49.232;9.222;2023-03-23T12:42:10;15.80;99.90
20081;DHT22;10200;49.232;9.222;2023-03-23T12:47:47;15.70;99.90
20081;DHT22;10200;49.232;9.222;2023-03-23T12:50:27;15.80;99.90
20081;DHT22;10200;49.232;9.222;2023-03-23T12:53:04;15.90;99.90
20081;DHT22;10200;49.232;9.222;2023-03-23T12:55:48;15.90;99.30
20081;DHT22;10200;49.232;9.222;2023-03-23T12:58:21;15.90;98.80
20081;DHT22;10200;49.232;9.222;2023-03-23T13:01:02;15.90;98.90
20081;DHT22;10200;49.232;9.222;2023-03-23T13:06:36;15.90;97.60
20081;DHT22;10200;49.232;9.222;2023-03-23T13:09:40;15.90;97.60
20081;DHT22;10200;49.232;9.222;2023-03-23T13:12:09;15.90;97.00
20081;DHT22;10200;49.232;9.222;2023-03-23T13:22:56;16.10;96.40
20081;DHT22;10200;49.232;9.222;2023-03-23T13:28:19;16.10;95.80
20081;DHT22;10200;49.232;9.222;2023-03-23T13:30:59;16.30;95.90
20081;DHT22;10200;49.232;9.222;2023-03-23T13:33:30;16.30;95.00
20081;DHT22;10200;49.232;9.222;2023-03-23T13:36:01;16.40;94.90
20081;DHT22;10200;49.232;9.222;2023-03-23T13:38:31;16.40;94.40
20081;DHT22;10200;49.232;9.222;2023-03-23T13:40:57;16.30;94.10
20081;DHT22;10200;49.232;9.222;2023-03-23T13:43:33;16.30;93.70
20081;DHT22;10200;49.232;9.222;2023-03-23T13:49:02;16.30;93.70
20081;DHT22;10200;49.232;9.222;2023-03-23T13:51:33;16.30;93.50
20081;DHT22;10200;49.232;9.222;2023-03-23T13:54:39;16.50;93.70
20081;DHT22;10200;49.232;9.222;2023-03-23T13:57:33;16.50;93.00
20081;DHT22;10200;49.232;9.222;2023-03-23T14:03:14;16.60;92.50
20081;DHT22;10200;49.232;9.222;2023-03-23T14:10:54;16.70;92.00
20081;DHT22;10200;49.232;9.222;2023-03-23T14:13:43;16.70;91.70
20081;DHT22;10200;49.232;9.222;2023-03-23T14:18:42;16.70;90.80
20081;DHT22;10200;49.232;9.222;2023-03-23T14:23:53;16.70;90.50
20081;DHT22;10200;49.232;9.222;2023-03-23T14:26:22;16.70;90.80
20081;DHT22;10200;49.232;9.222;2023-03-23T14:28:51;16.70;90.60
20081;DHT22;10200;49.232;9.222;2023-03-23T14:31:24;16.70;90.70
20081;DHT22;10200;49.232;9.222;2023-03-23T14:33:51;16.70;90.70
20081;DHT22;10200;49.232;9.222;2023-03-23T14:36:26;16.60;90.60
20081;DHT22;10200;49.232;9.222;2023-03-23T14:39:18;16.60;90.60
20081;DHT22;10200;49.232;9.222;2023-03-23T14:41:45;16.50;90.70
20081;DHT22;10200;49.232;9.222;2023-03-23T14:44:15;16.50;90.70
20081;DHT22;10200;49.232;9.222;2023-03-23T14:46:43;16.50;90.60
20081;DHT22;10200;49.232;9.222;2023-03-23T14:49:15;16.40;90.90
20081;DHT22;10200;49.232;9.222;2023-03-23T14:51:53;16.40;90.80
20081;DHT22;10200;49.232;9.222;2023-03-23T14:54:27;16.40;90.60
20081;DHT22;10200;49.232;9.222;2023-03-23T14:56:54;16.30;90.50
20081;DHT22;10200;49.232;9.222;2023-03-23T14:59:19;16.30;90.50
20081;DHT22;10200;49.232;9.222;2023-03-23T15:01:47;16.30;90.50
20081;DHT22;10200;49.232;9.222;2023-03-23T15:04:21;16.30;90.40
20081;DHT22;10200;49.232;9.222;2023-03-23T15:06:53;16.20;90.60
20081;DHT22;10200;49.232;9.222;2023-03-23T15:09:22;16.20;90.60
20081;DHT22;10200;49.232;9.222;2023-03-23T15:12:04;16.20;90.80
20081;DHT22;10200;49.232;9.222;2023-03-23T15:14:35;16.20;91.00
20081;DHT22;10200;49.232;9.222;2023-03-23T15:17:02;16.20;91.00
20081;DHT22;10200;49.232;9.222;2023-03-23T15:24:43;16.20;91.00
20081;DHT22;10200;49.232;9.222;2023-03-23T15:27:23;16.20;91.10
20081;DHT22;10200;49.232;9.222;2023-03-23T15:29:54;16.10;91.00
20081;DHT22;10200;49.232;9.222;2023-03-23T15:32:22;16.10;91.10
20081;DHT22;10200;49.232;9.222;2023-03-23T15:34:48;16.10;91.20
20081;DHT22;10200;49.232;9.222;2023-03-23T15:39:45;16.10;91.40
20081;DHT22;10200;49.232;9.222;2023-03-23T15:42:31;16.10;91.50
20081;DHT22;10200;49.232;9.222;2023-03-23T15:47:48;16.00;92.00
20081;DHT22;10200;49.232;9.222;2023-03-23T15:50:32;16.10;92.10
20081;DHT22;10200;49.232;9.222;2023-03-23T15:52:58;16.00;92.10
20081;DHT22;10200;49.232;9.222;2023-03-23T15:55:29;16.00;92.30
20081;DHT22;10200;49.232;9.222;2023-03-23T15:58:00;16.00;92.50
20081;DHT22;10200;49.232;9.222;2023-03-23T16:00:29;16.00;92.50
20081;DHT22;10200;49.232;9.222;2023-03-23T16:02:58;16.00;92.70
20081;DHT22;10200;49.232;9.222;2023-03-23T16:05:26;15.90;92.70
20081;DHT22;10200;49.232;9.222;2023-03-23T16:07:51;15.90;92.80
20081;DHT22;10200;49.232;9.222;2023-03-23T16:10:19;15.90;93.00
20081;DHT22;10200;49.232;9.222;2023-03-23T16:12:46;15.90;93.10
20081;DHT22;10200;49.232;9.222;2023-03-23T16:15:15;15.90;93.40
20081;DHT22;10200;49.232;9.222;2023-03-23T16:17:41;15.90;93.60
20081;DHT22;10200;49.232;9.222;2023-03-23T16:20:18;15.90;93.70
20081;DHT22;10200;49.232;9.222;2023-03-23T16:22:46;15.90;93.70
20081;DHT22;10200;49.232;9.222;2023-03-23T16:25:12;15.80;93.80
20081;DHT22;10200;49.232;9.222;2023-03-23T16:27:39;15.80;93.90
20081;DHT22;10200;49.232;9.222;2023-03-23T16:30:12;15.80;94.10
20081;DHT22;10200;49.232;9.222;2023-03-23T16:32:38;15.80;94.30
20081;DHT22;10200;49.232;9.222;2023-03-23T16:35:05;15.90;94.50
20081;DHT22;10200;49.232;9.222;2023-03-23T16:37:30;15.80;94.50
20081;DHT22;10200;49.232;9.222;2023-03-23T16:39:58;15.80;94.40
20081;DHT22;10200;49.232;9.222;2023-03-23T16:42:23;15.80;94.50
20081;DHT22;10200;49.232;9.222;2023-03-23T16:44:50;15.70;94.60
20081;DHT22;10200;49.232;9.222;2023-03-23T16:47:16;15.80;94.70
20081;DHT22;10200;49.232;9.222;2023-03-23T16:49:43;15.80;95.10
20081;DHT22;10200;49.232;9.222;2023-03-23T16:52:09;15.80;95.10
20081;DHT22;10200;49.232;9.222;2023-03-23T16:54:36;15.80;95.40
20081;DHT22;10200;49.232;9.222;2023-03-23T16:57:01;15.80;95.60
20081;DHT22;10200;49.232;9.222;2023-03-23T16:59:28;15.70;96.00
20081;DHT22;10200;49.232;9.222;2023-03-23T17:01:53;15.70;96.20
20081;DHT22;10200;49.232;9.222;2023-03-23T17:04:19;15.70;96.40
20081;DHT22;10200;49.232;9.222;2023-03-23T17:06:45;15.80;96.90
20081;DHT22;10200;49.232;9.222;2023-03-23T17:09:11;15.60;97.20
20081;DHT22;10200;49.232;9.222;2023-03-23T17:11:36;15.60;97.30
20081;DHT22;10200;49.232;9.222;2023-03-23T17:14:02;15.60;97.30
20081;DHT22;10200;49.232;9.222;2023-03-23T17:16:28;15.60;97.50
20081;DHT22;10200;49.232;9.222;2023-03-23T17:18:53;15.50;97.90
20081;DHT22;10200;49.232;9.222;2023-03-23T17:21:19;15.50;98.10
20081;DHT22;10200;49.232;9.222;2023-03-23T17:23:49;15.50;98.10
20081;DHT22;10200;49.232;9.222;2023-03-23T17:26:15;15.50;98.10
20081;DHT22;10200;49.232;9.222;2023-03-23T17:28:41;15.50;98.30
20081;DHT22;10200;49.232;9.222;2023-03-23T17:31:07;15.40;98.50
20081;DHT22;10200;49.232;9.222;2023-03-23T17:33:32;15.40;98.70
20081;DHT22;10200;49.232;9.222;2023-03-23T17:35:58;15.40;98.80
20081;DHT22;10200;49.232;9.222;2023-03-23T17:38:24;15.30;98.80
20081;DHT22;10200;49.232;9.222;2023-03-23T17:40:56;15.20;99.00
20081;DHT22;10200;49.232;9.222;2023-03-23T17:43:22;15.20;99.20
20081;DHT22;10200;49.232;9.222;2023-03-23T17:45:47;15.20;99.30
20081;DHT22;10200;49.232;9.222;2023-03-23T17:48:13;15.20;99.40
20081;DHT22;10200;49.232;9.222;2023-03-23T17:50:39;15.10;99.40
20081;DHT22;10200;49.232;9.222;2023-03-23T17:53:04;15.00;99.50
20081;DHT22;10200;49.232;9.222;2023-03-23T17:55:30;15.00;99.60
20081;DHT22;10200;49.232;9.222;2023-03-23T17:57:56;15.00;99.80
20081;DHT22;10200;49.232;9.222;2023-03-23T18:00:21;15.00;99.70
20081;DHT22;10200;49.232;9.222;2023-03-23T18:02:47;14.90;99.80
20081;DHT22;10200;49.232;9.222;2023-03-23T18:05:12;15.00;99.90
20081;DHT22;10200;49.232;9.222;2023-03-23T18:07:39;14.90;99.90